Time;durP1;ratioP1;P1;durP2;ratioP2;P2;SDS_P1;SDS_P2;PMS_P1;PMS_P2;Temp;Humidity;BMP_temperature;BMP_pressure;BME280_temperature;BME280_humidity;BME280_pressure;Samples;Min_cycle;Max_cycle;Signal;HPM_P1;HPM_P2
2023/02/24 00:02:04;;;;;;;1.88;0.98;;;;;;;;;;4479697;28;20058;-58
2023/02/24 00:04:14;;;;;;;1.45;0.85;;;;;;;;;;4480516;28;20038;-58
2023/02/24 00:06:37;;;;;;;2.03;0.90;;;;;;;;;;4489327;28;20046;-58
2023/02/24 00:08:47;;;;;;;1.60;0.80;;;;;;;;;;4480035;28;20035;-57
2023/02/24 00:10:58;;;;;;;1.65;0.90;;;;;;;;;;4481212;28;20492;-58
2023/02/24 00:13:10;;;;;;;1.58;0.80;;;;;;;;;;4480621;28;20065;-58
2023/02/24 00:15:21;;;;;;;1.58;0.90;;;;;;;;;;4479748;28;20074;-58
2023/02/24 00:17:31;;;;;;;2.13;1.02;;;;;;;;;;4479610;28;20916;-57
2023/02/24 00:19:41;;;;;;;1.75;0.88;;;;;;;;;;4480851;28;20129;-58
2023/02/24 00:21:53;;;;;;;1.70;0.90;;;;;;;;;;4479070;28;20101;-57
2023/02/24 00:24:03;;;;;;;1.27;0.80;;;;;;;;;;4480238;28;20047;-58
2023/02/24 00:26:14;;;;;;;2.20;0.90;;;;;;;;;;4481177;28;20403;-57
2023/02/24 00:28:27;;;;;;;2.22;0.95;;;;;;;;;;4480578;28;20039;-57
2023/02/24 00:30:38;;;;;;;1.55;0.90;;;;;;;;;;4477171;28;20038;-57
2023/02/24 00:32:48;;;;;;;1.80;1.00;;;;;;;;;;4492332;28;20038;-59
2023/02/24 00:34:59;;;;;;;2.00;1.00;;;;;;;;;;4479107;28;20069;-57
2023/02/24 00:37:09;;;;;;;1.23;0.80;;;;;;;;;;4480841;28;20097;-57
2023/02/24 00:39:29;;;;;;;2.20;1.00;;;;;;;;;;4478257;28;20026;-57
2023/02/24 00:41:40;;;;;;;1.77;0.82;;;;;;;;;;4480274;28;20043;-57
2023/02/24 00:43:54;;;;;;;1.63;0.80;;;;;;;;;;4478568;28;20073;-57
2023/02/24 00:46:10;;;;;;;1.60;1.00;;;;;;;;;;4472705;28;20646;-57
2023/02/24 00:48:28;;;;;;;2.13;0.90;;;;;;;;;;4480286;28;20077;-57
2023/02/24 00:50:38;;;;;;;1.83;1.10;;;;;;;;;;4481584;28;20948;-59
2023/02/24 00:52:49;;;;;;;1.92;0.88;;;;;;;;;;4481228;28;20038;-57
2023/02/24 00:54:59;;;;;;;2.25;1.02;;;;;;;;;;4481914;28;20116;-56
2023/02/24 00:57:13;;;;;;;2.03;0.90;;;;;;;;;;4487277;28;20038;-57
2023/02/24 00:59:23;;;;;;;1.55;0.93;;;;;;;;;;4477970;28;20026;-57
2023/02/24 01:01:34;;;;;;;2.72;1.20;;;;;;;;;;4485733;28;20092;-57
2023/02/24 01:03:44;;;;;;;2.13;1.00;;;;;;;;;;4484453;28;20034;-57
2023/02/24 01:05:54;;;;;;;2.30;1.15;;;;;;;;;;4483060;28;20081;-57
2023/02/24 01:08:06;;;;;;;2.65;0.90;;;;;;;;;;4475538;28;20118;-58
2023/02/24 01:10:17;;;;;;;1.80;0.88;;;;;;;;;;4481492;28;20042;-58
2023/02/24 01:15:10;;;;;;;1.80;1.08;;;;;;;;;;4457303;28;20807;-58
2023/02/24 01:17:24;;;;;;;2.03;1.10;;;;;;;;;;4481402;28;20033;-57
2023/02/24 01:19:35;;;;;;;2.33;1.02;;;;;;;;;;4473067;28;20133;-58
2023/02/24 01:21:46;;;;;;;1.40;0.90;;;;;;;;;;4482818;28;20221;-57
2023/02/24 01:23:56;;;;;;;1.75;0.90;;;;;;;;;;4481794;28;20450;-58
2023/02/24 01:26:07;;;;;;;1.88;0.90;;;;;;;;;;4483473;28;20045;-57
2023/02/24 01:28:17;;;;;;;3.20;1.10;;;;;;;;;;4491045;28;20506;-57
2023/02/24 01:30:27;;;;;;;2.10;1.17;;;;;;;;;;4490854;28;20507;-58
2023/02/24 01:32:38;;;;;;;1.92;1.00;;;;;;;;;;4484221;28;20027;-58
2023/02/24 01:34:52;;;;;;;2.15;0.90;;;;;;;;;;4481548;28;20042;-58
2023/02/24 01:37:02;;;;;;;2.25;0.90;;;;;;;;;;4479306;28;20035;-57
2023/02/24 01:39:12;;;;;;;1.92;0.80;;;;;;;;;;4472663;28;20039;-57
2023/02/24 01:41:30;;;;;;;2.28;1.00;;;;;;;;;;4481052;28;20395;-58
2023/02/24 01:44:00;;;;;;;2.50;0.88;;;;;;;;;;4474627;28;20573;-58
2023/02/24 01:46:12;;;;;;;2.42;0.90;;;;;;;;;;4479863;28;20042;-57
2023/02/24 01:48:23;;;;;;;1.85;0.95;;;;;;;;;;4497055;28;20038;-57
2023/02/24 01:50:34;;;;;;;2.20;0.90;;;;;;;;;;4482558;28;20476;-58
2023/02/24 01:52:46;;;;;;;2.00;0.95;;;;;;;;;;4482478;28;20541;-57
2023/02/24 01:55:02;;;;;;;1.90;0.88;;;;;;;;;;4482120;28;20065;-56
2023/02/24 01:57:16;;;;;;;1.52;0.90;;;;;;;;;;4491069;28;20141;-56
2023/02/24 01:59:27;;;;;;;1.52;0.82;;;;;;;;;;4481097;28;20058;-58
2023/02/24 02:01:41;;;;;;;2.00;0.80;;;;;;;;;;4480164;28;20074;-58
2023/02/24 02:03:53;;;;;;;2.67;0.95;;;;;;;;;;4473681;28;20095;-57
2023/02/24 02:06:09;;;;;;;1.30;0.80;;;;;;;;;;4490693;28;20121;-57
2023/02/24 02:08:22;;;;;;;2.40;0.80;;;;;;;;;;4482017;28;20767;-58
2023/02/24 02:10:33;;;;;;;1.73;0.77;;;;;;;;;;4490756;28;20068;-58
2023/02/24 02:12:46;;;;;;;1.80;0.80;;;;;;;;;;4480512;28;20116;-58
2023/02/24 02:14:58;;;;;;;2.35;0.80;;;;;;;;;;4483787;28;20152;-59
2023/02/24 02:17:15;;;;;;;1.45;0.73;;;;;;;;;;4480330;28;20136;-56
2023/02/24 02:19:40;;;;;;;2.58;0.77;;;;;;;;;;4483061;28;20045;-57
2023/02/24 02:22:04;;;;;;;2.10;0.90;;;;;;;;;;4480004;28;20070;-58
2023/02/24 02:24:15;;;;;;;1.92;0.80;;;;;;;;;;4480059;28;20204;-58
2023/02/24 02:26:43;;;;;;;2.15;0.80;;;;;;;;;;4481421;28;20089;-57
2023/02/24 02:29:08;;;;;;;2.05;1.00;;;;;;;;;;4473883;28;20038;-57
2023/02/24 02:31:38;;;;;;;1.85;0.90;;;;;;;;;;4481840;28;20691;-57
2023/02/24 02:33:56;;;;;;;1.58;0.73;;;;;;;;;;4494503;28;20034;-58
2023/02/24 02:36:11;;;;;;;2.33;0.90;;;;;;;;;;4480093;28;20506;-57
2023/02/24 02:38:30;;;;;;;2.67;0.90;;;;;;;;;;4475264;28;20633;-59
2023/02/24 02:40:48;;;;;;;2.03;1.00;;;;;;;;;;4479477;28;20680;-58
2023/02/24 02:43:18;;;;;;;1.77;0.90;;;;;;;;;;4477799;28;20046;-58
2023/02/24 02:45:36;;;;;;;2.20;0.90;;;;;;;;;;4479032;28;20093;-58
2023/02/24 02:47:57;;;;;;;1.70;0.77;;;;;;;;;;4495987;28;20059;-58
2023/02/24 02:50:17;;;;;;;2.17;0.80;;;;;;;;;;4481099;28;21267;-58
2023/02/24 02:52:30;;;;;;;1.70;0.85;;;;;;;;;;4480135;28;20044;-58
2023/02/24 02:54:48;;;;;;;2.47;0.90;;;;;;;;;;4481728;28;20045;-58
2023/02/24 02:57:04;;;;;;;3.20;0.98;;;;;;;;;;4458599;28;20082;-58
2023/02/24 02:59:21;;;;;;;2.10;0.90;;;;;;;;;;4478580;28;20078;-58
2023/02/24 03:01:34;;;;;;;1.77;0.93;;;;;;;;;;4473421;28;20026;-58
2023/02/24 03:03:48;;;;;;;2.15;0.95;;;;;;;;;;4479489;28;20041;-58
2023/02/24 03:06:00;;;;;;;2.42;0.80;;;;;;;;;;4473354;28;20584;-58
2023/02/24 03:08:14;;;;;;;1.67;0.90;;;;;;;;;;4482462;28;20743;-58
2023/02/24 03:10:26;;;;;;;1.48;0.80;;;;;;;;;;4495142;28;20084;-58
2023/02/24 03:12:38;;;;;;;2.15;0.80;;;;;;;;;;4481258;28;20116;-58
2023/02/24 03:14:58;;;;;;;1.42;0.60;;;;;;;;;;4481443;28;20795;-59
2023/02/24 03:17:11;;;;;;;2.63;0.80;;;;;;;;;;4490972;28;20077;-58
2023/02/24 03:19:25;;;;;;;1.27;0.70;;;;;;;;;;4475458;28;20026;-58
2023/02/24 03:21:38;;;;;;;2.47;0.90;;;;;;;;;;4473222;28;20038;-58
2023/02/24 03:23:50;;;;;;;2.13;0.80;;;;;;;;;;4480155;28;21528;-58
2023/02/24 03:26:22;;;;;;;1.00;0.60;;;;;;;;;;4455824;28;20077;-57
2023/02/24 03:28:36;;;;;;;1.58;0.70;;;;;;;;;;4479039;28;20038;-58
2023/02/24 03:30:57;;;;;;;1.88;0.80;;;;;;;;;;4477984;28;20042;-58
2023/02/24 03:33:15;;;;;;;1.63;0.77;;;;;;;;;;4490225;28;20073;-58
2023/02/24 03:35:28;;;;;;;1.73;0.85;;;;;;;;;;4478460;28;20042;-58
2023/02/24 03:37:39;;;;;;;1.30;0.70;;;;;;;;;;4488622;28;20065;-58
2023/02/24 03:39:52;;;;;;;2.03;0.70;;;;;;;;;;4477837;28;20038;-58
2023/02/24 03:42:07;;;;;;;1.88;0.80;;;;;;;;;;4488359;28;21160;-58
2023/02/24 03:44:18;;;;;;;2.13;0.90;;;;;;;;;;4477537;28;20412;-58
2023/02/24 03:46:31;;;;;;;1.45;0.88;;;;;;;;;;4489792;28;20899;-57
2023/02/24 03:48:49;;;;;;;1.38;0.60;;;;;;;;;;4477379;28;20065;-58
2023/02/24 03:51:02;;;;;;;1.73;0.70;;;;;;;;;;4472900;28;20532;-58
2023/02/24 03:53:37;;;;;;;2.17;0.88;;;;;;;;;;4493681;28;20604;-58
2023/02/24 03:55:58;;;;;;;2.03;0.93;;;;;;;;;;4478774;28;20043;-59
2023/02/24 03:58:30;;;;;;;1.35;0.75;;;;;;;;;;4475638;28;20810;-58
2023/02/24 04:00:45;;;;;;;1.75;0.73;;;;;;;;;;4469979;28;20590;-58
2023/02/24 04:02:59;;;;;;;1.40;0.70;;;;;;;;;;4472655;28;20042;-59
2023/02/24 04:05:13;;;;;;;1.48;0.70;;;;;;;;;;4477262;28;20046;-58
2023/02/24 04:07:40;;;;;;;1.52;0.80;;;;;;;;;;4478759;28;20042;-58
2023/02/24 04:10:08;;;;;;;1.30;0.65;;;;;;;;;;4479123;28;20542;-57
2023/02/24 04:12:35;;;;;;;1.85;0.80;;;;;;;;;;4478186;28;20038;-58
2023/02/24 04:14:53;;;;;;;1.75;0.98;;;;;;;;;;4489643;28;20041;-58
2023/02/24 04:17:22;;;;;;;1.52;0.70;;;;;;;;;;4478319;28;20084;-58
2023/02/24 04:19:37;;;;;;;2.95;1.00;;;;;;;;;;4479791;28;20048;-58
2023/02/24 04:21:49;;;;;;;1.30;0.77;;;;;;;;;;4482368;28;20368;-57
2023/02/24 04:24:07;;;;;;;1.25;0.60;;;;;;;;;;4478774;28;20046;-57
2023/02/24 04:26:18;;;;;;;1.58;0.90;;;;;;;;;;4493467;28;20428;-58
2023/02/24 04:28:29;;;;;;;1.38;0.80;;;;;;;;;;4479304;28;20062;-58
2023/02/24 04:30:44;;;;;;;1.38;0.80;;;;;;;;;;4480109;28;20093;-58
2023/02/24 04:32:56;;;;;;;2.65;0.80;;;;;;;;;;4477742;28;21279;-57
2023/02/24 04:35:09;;;;;;;2.83;0.90;;;;;;;;;;4480782;28;20027;-58
2023/02/24 04:37:21;;;;;;;1.65;0.85;;;;;;;;;;4487681;28;20069;-58
2023/02/24 04:39:32;;;;;;;1.60;0.82;;;;;;;;;;4478122;28;20121;-58
2023/02/24 04:41:48;;;;;;;1.67;0.80;;;;;;;;;;4479203;28;20077;-58
2023/02/24 04:44:00;;;;;;;1.52;0.70;;;;;;;;;;4479247;28;20034;-58
2023/02/24 04:46:12;;;;;;;1.70;0.90;;;;;;;;;;4479384;28;20544;-57
2023/02/24 04:48:22;;;;;;;1.92;0.80;;;;;;;;;;4479869;28;21144;-58
2023/02/24 04:50:34;;;;;;;1.73;0.80;;;;;;;;;;4480485;28;20030;-57
2023/02/24 04:52:46;;;;;;;1.33;0.80;;;;;;;;;;4481570;28;20035;-58
2023/02/24 04:54:57;;;;;;;1.67;0.70;;;;;;;;;;4470658;28;20038;-57
2023/02/24 04:57:09;;;;;;;1.15;0.70;;;;;;;;;;4478368;28;20134;-58
2023/02/24 04:59:20;;;;;;;1.52;0.80;;;;;;;;;;4479004;28;20383;-58
2023/02/24 05:01:31;;;;;;;1.30;0.70;;;;;;;;;;4480960;28;20158;-58
2023/02/24 05:03:42;;;;;;;2.15;0.80;;;;;;;;;;4483146;28;20153;-58
2023/02/24 05:05:57;;;;;;;1.42;0.80;;;;;;;;;;4482365;28;20862;-58
2023/02/24 05:08:08;;;;;;;1.52;0.80;;;;;;;;;;4478821;28;20082;-58
2023/02/24 05:10:19;;;;;;;1.70;0.90;;;;;;;;;;4478249;28;20625;-58
2023/02/24 05:12:30;;;;;;;1.48;0.77;;;;;;;;;;4480849;28;20073;-57
2023/02/24 05:14:40;;;;;;;1.52;0.80;;;;;;;;;;4480684;28;20034;-57
2023/02/24 05:16:51;;;;;;;1.50;0.70;;;;;;;;;;4478795;28;20026;-56
2023/02/24 05:21:37;;;;;;;1.40;0.80;;;;;;;;;;4490133;28;20168;-57
2023/02/24 05:23:50;;;;;;;2.15;0.80;;;;;;;;;;4478170;28;20030;-56
2023/02/24 05:26:01;;;;;;;2.10;0.90;;;;;;;;;;4477941;28;20054;-57
2023/02/24 05:28:12;;;;;;;1.83;0.70;;;;;;;;;;4478921;28;20124;-56
2023/02/24 05:30:23;;;;;;;1.10;0.60;;;;;;;;;;4470836;28;20601;-55
2023/02/24 05:32:33;;;;;;;1.63;0.85;;;;;;;;;;4479860;28;20395;-56
2023/02/24 05:34:43;;;;;;;1.23;0.52;;;;;;;;;;4479092;28;20475;-57
2023/02/24 05:36:53;;;;;;;2.47;0.85;;;;;;;;;;4487417;28;20042;-57
2023/02/24 05:39:06;;;;;;;1.13;0.70;;;;;;;;;;4478601;28;20042;-58
2023/02/24 05:41:17;;;;;;;1.35;0.75;;;;;;;;;;4478613;28;20154;-56
2023/02/24 05:43:30;;;;;;;1.75;0.70;;;;;;;;;;4481116;28;20046;-57
2023/02/24 05:45:42;;;;;;;1.75;0.85;;;;;;;;;;4490725;28;20881;-57
2023/02/24 05:47:53;;;;;;;2.13;0.82;;;;;;;;;;4483620;28;21094;-57
2023/02/24 05:50:04;;;;;;;1.70;0.82;;;;;;;;;;4482745;28;20042;-57
2023/02/24 05:52:14;;;;;;;1.90;0.98;;;;;;;;;;4482396;28;20956;-56
2023/02/24 05:54:28;;;;;;;1.42;0.70;;;;;;;;;;4482899;28;20069;-57
2023/02/24 05:56:42;;;;;;;1.75;0.80;;;;;;;;;;4482168;28;20782;-57
2023/02/24 05:59:00;;;;;;;1.85;0.98;;;;;;;;;;4474568;28;20053;-57
2023/02/24 06:01:15;;;;;;;1.50;0.80;;;;;;;;;;4483745;28;20046;-58
2023/02/24 06:03:29;;;;;;;1.45;0.70;;;;;;;;;;4478758;28;20042;-57
2023/02/24 06:05:41;;;;;;;1.55;0.70;;;;;;;;;;4482694;28;20121;-57
2023/02/24 06:08:01;;;;;;;2.35;1.00;;;;;;;;;;4483339;28;20043;-57
2023/02/24 06:10:14;;;;;;;1.27;0.80;;;;;;;;;;4481346;28;20826;-56
2023/02/24 06:12:27;;;;;;;1.50;0.77;;;;;;;;;;4480282;28;20054;-57
2023/02/24 06:14:37;;;;;;;1.70;0.77;;;;;;;;;;4479354;28;20042;-57
2023/02/24 06:16:47;;;;;;;1.55;0.75;;;;;;;;;;4482133;28;20042;-57
2023/02/24 06:18:58;;;;;;;1.00;0.60;;;;;;;;;;4481283;28;20137;-57
2023/02/24 06:21:11;;;;;;;1.02;0.70;;;;;;;;;;4480972;28;20606;-57
2023/02/24 06:23:25;;;;;;;1.85;0.80;;;;;;;;;;4475080;28;20085;-57
2023/02/24 06:25:37;;;;;;;1.13;0.70;;;;;;;;;;4483991;28;20038;-57
2023/02/24 06:27:51;;;;;;;1.33;0.80;;;;;;;;;;4482967;28;20036;-59
2023/02/24 06:30:02;;;;;;;1.70;0.75;;;;;;;;;;4482445;28;20065;-57
2023/02/24 06:32:12;;;;;;;1.20;0.70;;;;;;;;;;4482147;28;20137;-58
2023/02/24 06:34:24;;;;;;;1.65;0.63;;;;;;;;;;4489292;28;20038;-57
2023/02/24 06:36:34;;;;;;;1.25;0.75;;;;;;;;;;4478982;28;20146;-58
2023/02/24 06:38:45;;;;;;;1.52;0.93;;;;;;;;;;4479761;28;20042;-59
2023/02/24 06:41:01;;;;;;;1.45;0.60;;;;;;;;;;4479315;28;20041;-58
2023/02/24 06:43:12;;;;;;;1.48;0.98;;;;;;;;;;4480121;28;20050;-58
2023/02/24 06:45:23;;;;;;;1.30;0.70;;;;;;;;;;4478285;28;20034;-58
2023/02/24 06:47:33;;;;;;;1.17;0.60;;;;;;;;;;4479220;28;20023;-59
2023/02/24 06:49:43;;;;;;;1.83;0.70;;;;;;;;;;4477371;28;20039;-57
2023/02/24 06:51:54;;;;;;;1.33;0.50;;;;;;;;;;4478463;28;20038;-58
2023/02/24 06:54:05;;;;;;;1.17;0.70;;;;;;;;;;4479851;28;20894;-58
2023/02/24 06:56:18;;;;;;;1.25;0.80;;;;;;;;;;4478961;28;20616;-58
2023/02/24 06:58:30;;;;;;;1.58;0.73;;;;;;;;;;4480274;28;20049;-59
2023/02/24 07:00:41;;;;;;;1.10;0.57;;;;;;;;;;4477640;28;20854;-59
2023/02/24 07:02:52;;;;;;;0.70;0.55;;;;;;;;;;4479297;28;20101;-58
2023/02/24 07:05:05;;;;;;;1.15;0.60;;;;;;;;;;4478937;28;20042;-57
2023/02/24 07:07:16;;;;;;;0.90;0.52;;;;;;;;;;4478682;28;20645;-59
2023/02/24 07:09:26;;;;;;;0.88;0.52;;;;;;;;;;4480118;28;20038;-58
2023/02/24 07:11:36;;;;;;;1.63;0.60;;;;;;;;;;4482444;28;20040;-58
2023/02/24 07:13:47;;;;;;;0.82;0.60;;;;;;;;;;4480568;28;20034;-58
2023/02/24 07:15:59;;;;;;;1.45;0.60;;;;;;;;;;4479111;28;20046;-58
2023/02/24 07:18:13;;;;;;;1.25;0.60;;;;;;;;;;4479592;28;20042;-59
2023/02/24 07:20:25;;;;;;;0.55;0.30;;;;;;;;;;4482175;28;20590;-58
2023/02/24 07:22:35;;;;;;;1.30;0.60;;;;;;;;;;4481721;28;20103;-58
2023/02/24 07:24:45;;;;;;;0.98;0.60;;;;;;;;;;4489814;28;20100;-58
2023/02/24 07:26:56;;;;;;;1.88;0.70;;;;;;;;;;4480337;28;20030;-61
2023/02/24 07:29:08;;;;;;;1.13;0.60;;;;;;;;;;4487040;28;20297;-58
2023/02/24 07:31:20;;;;;;;0.63;0.40;;;;;;;;;;4479845;28;20097;-59
2023/02/24 07:33:33;;;;;;;1.27;0.50;;;;;;;;;;4480370;28;20755;-59
2023/02/24 07:35:47;;;;;;;1.30;0.60;;;;;;;;;;4487158;28;20046;-59
2023/02/24 07:38:00;;;;;;;1.55;0.70;;;;;;;;;;4480972;28;20193;-59
2023/02/24 07:40:16;;;;;;;1.00;0.50;;;;;;;;;;4480119;28;20034;-59
2023/02/24 07:42:29;;;;;;;1.40;0.60;;;;;;;;;;4480494;28;20088;-59
2023/02/24 07:44:39;;;;;;;1.30;0.50;;;;;;;;;;4478928;28;20046;-59
2023/02/24 07:46:50;;;;;;;1.27;0.60;;;;;;;;;;4477326;28;20042;-58
2023/02/24 07:49:02;;;;;;;0.60;0.40;;;;;;;;;;4480590;28;20039;-59
2023/02/24 07:51:14;;;;;;;0.77;0.40;;;;;;;;;;4479220;28;20128;-59
2023/02/24 07:53:26;;;;;;;1.40;0.60;;;;;;;;;;4480355;28;20030;-59
2023/02/24 07:55:37;;;;;;;1.80;0.80;;;;;;;;;;4479181;28;20049;-59
2023/02/24 07:57:47;;;;;;;1.10;0.60;;;;;;;;;;4479163;28;20395;-58
2023/02/24 07:59:58;;;;;;;0.95;0.60;;;;;;;;;;4481553;28;20145;-60
2023/02/24 08:02:10;;;;;;;1.05;0.65;;;;;;;;;;4478762;28;20130;-58
2023/02/24 08:04:31;;;;;;;1.23;0.70;;;;;;;;;;4480393;28;20370;-58
2023/02/24 08:06:44;;;;;;;1.70;0.73;;;;;;;;;;4478100;28;20050;-59
2023/02/24 08:08:58;;;;;;;1.08;0.70;;;;;;;;;;4478096;28;20031;-59
2023/02/24 08:11:09;;;;;;;1.20;0.70;;;;;;;;;;4479118;28;20061;-59
2023/02/24 08:13:19;;;;;;;1.30;0.80;;;;;;;;;;4482716;28;20149;-59
2023/02/24 08:15:32;;;;;;;2.08;0.85;;;;;;;;;;4479052;28;20034;-60
2023/02/24 08:17:43;;;;;;;1.73;0.80;;;;;;;;;;4479390;28;20109;-59
2023/02/24 08:22:23;;;;;;;1.00;0.90;;;;;;;;;;4479084;28;20089;-59
2023/02/24 08:24:34;;;;;;;1.48;0.73;;;;;;;;;;4478776;28;20118;-59
2023/02/24 08:26:47;;;;;;;1.15;0.80;;;;;;;;;;4479832;28;20046;-59
2023/02/24 08:28:57;;;;;;;1.33;0.80;;;;;;;;;;4475438;28;20586;-59
2023/02/24 08:31:08;;;;;;;1.33;0.70;;;;;;;;;;4480499;28;20185;-59
2023/02/24 08:33:19;;;;;;;1.17;0.75;;;;;;;;;;4480788;28;20123;-59
2023/02/24 08:35:34;;;;;;;1.40;0.80;;;;;;;;;;4476723;28;20070;-59
2023/02/24 08:37:46;;;;;;;0.85;0.60;;;;;;;;;;4480504;28;20586;-59
2023/02/24 08:39:56;;;;;;;1.58;0.70;;;;;;;;;;4478564;28;20137;-59
2023/02/24 08:42:07;;;;;;;2.05;0.60;;;;;;;;;;4493498;28;20133;-59
2023/02/24 08:44:19;;;;;;;1.25;0.60;;;;;;;;;;4479689;28;20045;-59
2023/02/24 08:46:36;;;;;;;1.10;0.60;;;;;;;;;;4476282;28;20042;-59
2023/02/24 08:48:48;;;;;;;1.02;0.63;;;;;;;;;;4479290;28;21093;-59
2023/02/24 08:51:01;;;;;;;1.00;0.50;;;;;;;;;;4479226;28;20038;-59
2023/02/24 08:53:17;;;;;;;1.30;0.73;;;;;;;;;;4480928;28;20030;-58
2023/02/24 08:55:31;;;;;;;0.68;0.50;;;;;;;;;;4478898;28;20042;-59
2023/02/24 08:57:50;;;;;;;1.02;0.57;;;;;;;;;;4478872;28;20586;-59
2023/02/24 09:00:05;;;;;;;1.20;0.60;;;;;;;;;;4480319;28;21222;-59
2023/02/24 09:02:17;;;;;;;1.23;0.60;;;;;;;;;;4478958;28;21097;-59
2023/02/24 09:04:27;;;;;;;1.25;0.70;;;;;;;;;;4479464;28;20035;-59
2023/02/24 09:06:42;;;;;;;1.27;0.82;;;;;;;;;;4478453;28;20516;-59
2023/02/24 09:11:23;;;;;;;0.47;0.47;;;;;;;;;;4489549;28;20046;-59
2023/02/24 09:13:50;;;;;;;1.30;0.80;;;;;;;;;;4479924;28;20275;-58
2023/02/24 09:16:01;;;;;;;1.55;0.90;;;;;;;;;;4477350;28;20049;-59
2023/02/24 09:18:13;;;;;;;1.33;0.80;;;;;;;;;;4493645;28;20604;-59
2023/02/24 09:22:54;;;;;;;1.23;0.60;;;;;;;;;;4480396;28;20881;-59
2023/02/24 09:25:17;;;;;;;1.77;0.80;;;;;;;;;;4482225;28;20045;-59
2023/02/24 09:27:28;;;;;;;1.50;0.70;;;;;;;;;;4482686;28;20193;-59
2023/02/24 09:29:48;;;;;;;1.20;0.65;;;;;;;;;;4480384;28;20501;-59
2023/02/24 09:32:04;;;;;;;1.15;0.50;;;;;;;;;;4483727;28;20340;-58
2023/02/24 09:34:17;;;;;;;2.17;0.88;;;;;;;;;;4482935;28;20041;-59
2023/02/24 09:36:28;;;;;;;1.60;0.75;;;;;;;;;;4480494;28;20041;-58
2023/02/24 09:41:28;;;;;;;1.33;0.60;;;;;;;;;;4480522;28;20120;-58
2023/02/24 09:43:43;;;;;;;0.85;0.50;;;;;;;;;;4480768;28;20587;-57
2023/02/24 09:45:59;;;;;;;0.80;0.50;;;;;;;;;;4481536;28;20129;-59
2023/02/24 09:48:15;;;;;;;1.33;0.50;;;;;;;;;;4481157;28;20118;-59
2023/02/24 09:50:45;;;;;;;1.57;0.60;;;;;;;;;;4490680;28;20164;-60
2023/02/24 09:53:16;;;;;;;1.35;0.68;;;;;;;;;;4481696;28;20089;-59
2023/02/24 09:55:58;;;;;;;1.33;0.55;;;;;;;;;;4478547;28;20278;-61
2023/02/24 09:58:27;;;;;;;0.77;0.60;;;;;;;;;;4479619;28;20049;-62
2023/02/24 10:00:42;;;;;;;1.52;0.70;;;;;;;;;;4480736;28;20034;-59
2023/02/24 10:03:02;;;;;;;0.57;0.40;;;;;;;;;;4480013;28;20097;-59
2023/02/24 10:05:16;;;;;;;1.67;0.70;;;;;;;;;;4481062;28;20038;-58
2023/02/24 10:07:28;;;;;;;1.80;1.40;;;;;;;;;;4495479;28;20042;-59
2023/02/24 10:09:39;;;;;;;1.67;0.70;;;;;;;;;;4482237;28;20050;-59
2023/02/24 10:11:53;;;;;;;1.83;1.00;;;;;;;;;;4479961;28;20049;-57
2023/02/24 10:14:05;;;;;;;1.27;0.70;;;;;;;;;;4481018;28;20031;-59
2023/02/24 10:16:22;;;;;;;0.98;0.80;;;;;;;;;;4484020;28;20042;-58
2023/02/24 10:18:32;;;;;;;;;;;;;;;;;;4480735;28;21188;-59
2023/02/24 10:20:44;;;;;;;1.27;0.80;;;;;;;;;;4462253;28;20078;-58
2023/02/24 10:22:58;;;;;;;2.13;0.80;;;;;;;;;;4482143;28;20051;-58
2023/02/24 10:25:17;;;;;;;1.33;0.70;;;;;;;;;;4481021;28;21673;-60
2023/02/24 10:27:36;;;;;;;0.90;0.68;;;;;;;;;;4480027;28;20606;-59
2023/02/24 10:30:18;;;;;;;2.17;0.90;;;;;;;;;;4479206;28;20042;-59
2023/02/24 10:32:47;;;;;;;1.23;0.68;;;;;;;;;;4481953;28;20692;-59
2023/02/24 10:34:57;;;;;;;1.55;0.77;;;;;;;;;;4477108;28;20042;-59
2023/02/24 10:37:12;;;;;;;1.60;0.80;;;;;;;;;;4479836;28;20038;-59
2023/02/24 10:39:24;;;;;;;1.60;0.90;;;;;;;;;;4478781;28;20620;-60
2023/02/24 10:41:44;;;;;;;0.85;0.63;;;;;;;;;;4477905;28;20042;-59
2023/02/24 10:43:55;;;;;;;1.95;0.95;;;;;;;;;;4482015;28;20594;-61
2023/02/24 10:46:05;;;;;;;1.77;0.90;;;;;;;;;;4482758;28;20179;-60
2023/02/24 10:48:24;;;;;;;1.00;0.70;;;;;;;;;;4480267;28;20764;-61
2023/02/24 10:50:42;;;;;;;2.13;0.80;;;;;;;;;;4478577;28;20046;-60
2023/02/24 10:55:27;;;;;;;0.82;0.60;;;;;;;;;;4480303;28;20371;-61
2023/02/24 10:57:48;;;;;;;1.67;0.70;;;;;;;;;;4481149;28;20030;-60
2023/02/24 11:02:28;;;;;;;1.10;0.70;;;;;;;;;;4481466;28;20041;-61
2023/02/24 11:07:12;;;;;;;1.33;0.60;;;;;;;;;;4482243;28;20042;-59
2023/02/24 11:17:13;;;;;;;1.95;0.80;;;;;;;;;;4478004;28;21291;-59
2023/02/24 11:19:09;;;;;;;1.85;0.70;;;;;;;;;;4478906;28;20037;-59
2023/02/24 11:21:22;;;;;;;1.08;0.70;;;;;;;;;;4481023;28;20616;-59
2023/02/24 11:23:44;;;;;;;1.52;0.73;;;;;;;;;;4478227;28;20029;-59
2023/02/24 11:25:57;;;;;;;1.60;1.00;;;;;;;;;;4473261;28;20043;-59
2023/02/24 11:28:23;;;;;;;1.60;0.93;;;;;;;;;;4478202;28;20034;-60
2023/02/24 11:30:44;;;;;;;1.98;1.15;;;;;;;;;;4479218;28;21478;-60
2023/02/24 11:33:06;;;;;;;1.35;0.90;;;;;;;;;;4480601;28;20034;-60
2023/02/24 11:35:19;;;;;;;1.90;0.90;;;;;;;;;;4478671;28;20053;-60
2023/02/24 11:37:31;;;;;;;2.40;1.25;;;;;;;;;;4480311;28;20611;-60
2023/02/24 11:39:47;;;;;;;2.00;1.13;;;;;;;;;;4478697;28;20043;-60
2023/02/24 11:42:00;;;;;;;2.20;1.30;;;;;;;;;;4478107;28;20573;-60
2023/02/24 11:44:22;;;;;;;1.73;0.82;;;;;;;;;;4487072;28;20127;-60
2023/02/24 11:46:44;;;;;;;1.42;0.90;;;;;;;;;;4477676;28;20049;-59
2023/02/24 11:48:56;;;;;;;1.13;0.75;;;;;;;;;;4488983;28;20034;-59
2023/02/24 11:51:12;;;;;;;1.55;1.05;;;;;;;;;;4478331;28;20326;-59
2023/02/24 11:53:22;;;;;;;1.20;0.93;;;;;;;;;;4476390;28;20049;-60
2023/02/24 11:55:37;;;;;;;1.77;0.90;;;;;;;;;;4487401;28;20069;-60
2023/02/24 11:57:52;;;;;;;1.20;0.65;;;;;;;;;;4481386;28;20057;-62
2023/02/24 12:00:12;;;;;;;1.02;0.60;;;;;;;;;;4456822;28;20130;-59
2023/02/24 12:02:42;;;;;;;1.27;0.82;;;;;;;;;;4479334;28;20034;-60
2023/02/24 12:04:52;;;;;;;1.55;1.00;;;;;;;;;;4473392;28;20140;-60
2023/02/24 12:07:12;;;;;;;1.67;1.10;;;;;;;;;;4479450;28;20103;-60
2023/02/24 12:09:27;;;;;;;1.73;1.00;;;;;;;;;;4478237;28;20042;-60
2023/02/24 12:11:51;;;;;;;2.05;1.10;;;;;;;;;;4478336;28;20486;-60
2023/02/24 12:14:06;;;;;;;1.38;0.85;;;;;;;;;;4479150;28;20038;-60
2023/02/24 12:16:27;;;;;;;1.30;0.80;;;;;;;;;;4488662;28;20038;-60
2023/02/24 12:18:39;;;;;;;0.77;0.70;;;;;;;;;;4479421;28;20034;-60
2023/02/24 12:20:53;;;;;;;1.20;0.90;;;;;;;;;;4495514;28;20137;-60
2023/02/24 12:23:14;;;;;;;1.85;1.00;;;;;;;;;;4478499;28;20031;-59
2023/02/24 12:25:28;;;;;;;2.17;1.15;;;;;;;;;;4488726;28;20056;-60
2023/02/24 12:27:45;;;;;;;1.20;0.82;;;;;;;;;;4478106;28;20053;-60
2023/02/24 12:30:21;;;;;;;1.08;0.73;;;;;;;;;;4481983;28;20033;-59
2023/02/24 12:32:40;;;;;;;1.05;0.68;;;;;;;;;;4473608;28;20538;-60
2023/02/24 12:34:50;;;;;;;1.02;0.70;;;;;;;;;;4480021;28;20045;-60
2023/02/24 12:37:10;;;;;;;0.95;0.70;;;;;;;;;;4490873;28;20577;-60
2023/02/24 12:39:26;;;;;;;1.13;0.75;;;;;;;;;;4480287;28;20806;-59
2023/02/24 12:41:36;;;;;;;1.52;0.85;;;;;;;;;;4478038;28;20055;-61
2023/02/24 12:44:16;;;;;;;1.10;1.00;;;;;;;;;;4477687;28;20434;-60
2023/02/24 12:46:26;;;;;;;1.73;1.00;;;;;;;;;;4442155;28;20051;-59
2023/02/24 12:48:57;;;;;;;1.00;0.90;;;;;;;;;;4488956;28;21502;-60
2023/02/24 12:51:10;;;;;;;0.70;0.60;;;;;;;;;;4466358;28;20200;-60
2023/02/24 12:53:35;;;;;;;0.75;0.60;;;;;;;;;;4480202;28;20046;-60
2023/02/24 12:55:54;;;;;;;1.70;0.95;;;;;;;;;;4482140;28;20581;-60
2023/02/24 12:58:11;;;;;;;2.13;1.20;;;;;;;;;;4483011;28;20033;-60
2023/02/24 13:00:28;;;;;;;1.77;1.33;;;;;;;;;;4478297;28;20150;-60
2023/02/24 13:02:59;;;;;;;1.98;1.20;;;;;;;;;;4482754;28;20129;-60
2023/02/24 13:05:28;;;;;;;1.45;1.02;;;;;;;;;;4480414;28;20098;-59
2023/02/24 13:07:59;;;;;;;1.58;0.80;;;;;;;;;;4482563;28;20582;-58
2023/02/24 13:10:10;;;;;;;1.23;0.90;;;;;;;;;;4481882;28;20055;-60
2023/02/24 13:12:29;;;;;;;0.93;0.77;;;;;;;;;;4481066;28;20483;-59
2023/02/24 13:14:40;;;;;;;0.95;0.80;;;;;;;;;;4481733;28;20811;-59
2023/02/24 13:17:01;;;;;;;1.63;0.90;;;;;;;;;;4482763;28;20085;-59
2023/02/24 13:19:20;;;;;;;1.10;0.70;;;;;;;;;;4480045;28;20106;-60
2023/02/24 13:21:31;;;;;;;1.15;0.80;;;;;;;;;;4471935;28;20039;-60
2023/02/24 13:23:51;;;;;;;1.15;0.60;;;;;;;;;;4456398;28;20046;-60
2023/02/24 13:26:02;;;;;;;0.73;0.60;;;;;;;;;;4475161;28;20043;-58
2023/02/24 13:28:22;;;;;;;1.67;0.80;;;;;;;;;;4482356;28;20097;-58
2023/02/24 13:30:32;;;;;;;0.70;0.60;;;;;;;;;;4482614;28;20034;-60
2023/02/24 13:32:46;;;;;;;0.90;0.60;;;;;;;;;;4481976;28;20042;-59
2023/02/24 13:34:57;;;;;;;0.77;0.57;;;;;;;;;;4479772;28;20075;-59
2023/02/24 13:37:09;;;;;;;1.30;0.70;;;;;;;;;;4474976;28;20049;-59
2023/02/24 13:39:25;;;;;;;0.98;0.80;;;;;;;;;;4480774;28;21264;-59
2023/02/24 13:41:39;;;;;;;0.90;0.70;;;;;;;;;;4481176;28;20069;-59
2023/02/24 13:43:58;;;;;;;1.17;0.88;;;;;;;;;;4481929;28;20606;-62
2023/02/24 13:46:17;;;;;;;0.95;0.85;;;;;;;;;;4482537;28;20097;-60
2023/02/24 13:48:44;;;;;;;1.25;0.82;;;;;;;;;;4481592;28;20111;-60
2023/02/24 13:50:57;;;;;;;1.55;0.95;;;;;;;;;;4480915;28;20042;-60
2023/02/24 13:53:16;;;;;;;1.30;1.00;;;;;;;;;;4480753;28;20030;-60
2023/02/24 13:55:29;;;;;;;1.05;0.80;;;;;;;;;;4479844;28;20054;-60
2023/02/24 13:58:06;;;;;;;1.10;0.80;;;;;;;;;;4481893;28;20031;-60
2023/02/24 14:00:20;;;;;;;1.25;1.00;;;;;;;;;;4477725;28;20153;-59